Delta Ruler — WDF8818 — position and weather

sailwx.info

Track history (hours):
 
Tides and Currents Weather Stations Pressure Air Temp Water Temp Dewpoint Dewpoint Depression Visibility Wind Speed Wind Dir Waves Ship Positions

Delta Ruler

Owner: Crosby Marine Transportation, Golden Meadow, LA. More information available from US FCC via Universal Licensing System and Coast Guard Vessel Documentation Center.

Last reported at 2017-Sep-02 07:54 UTC. Time now 2017-Sep-22 19:15 UTC.
Position N 29°33' W 090°24'.
Warning: this ship's position is 20 days out of date.

Length 22 m; draft 2.5 m.

Type: Tug. MMSI: 367498910.

Date/timePositionNaut miles runAvg speedWind from/ knotsBaromVisibWave heightAir tempDewpointWater temp
2017-Sep-02 07:54N 29°33' W 090°24'1 2.8
2017-Sep-02 07:29N 29°33' W 090°26'0 0.0
2017-Sep-02 06:04N 29°33' W 090°26'0 0.0
2017-Sep-02 05:49N 29°33' W 090°26'0 0.0
2017-Sep-02 04:42N 29°33' W 090°26'0 0.0
2017-Sep-02 04:12N 29°33' W 090°26'1 0.8
2017-Sep-02 02:46N 29°33' W 090°27'2 6.4
2017-Sep-02 02:30N 29°34' W 090°29'3 6.5
2017-Sep-02 02:00N 29°34' W 090°32'3 5.9
2017-Sep-02 01:30N 29°35' W 090°36'0 0.9
2017-Sep-02 01:00N 29°35' W 090°36'0 0.0
2017-Sep-02 00:29N 29°35' W 090°36'0 0.0
2017-Sep-02 00:00N 29°35' W 090°36'0 0.0
2017-Sep-01 23:29N 29°35' W 090°36'0 0.0
2017-Sep-01 23:00N 29°35' W 090°36'0 0.0
2017-Sep-01 22:19N 29°35' W 090°36'1 4.9
2017-Sep-01 22:00N 29°35' W 090°38'3 5.4
2017-Sep-01 21:30N 29°36' W 090°40'0 0.1
2017-Sep-01 21:00N 29°36' W 090°40'0 0.0
2017-Sep-01 20:29N 29°36' W 090°40'0 0.0
2017-Sep-01 20:00N 29°36' W 090°40'0 0.1
2017-Sep-01 19:30N 29°36' W 090°40'0 0.0
2017-Sep-01 19:00N 29°36' W 090°40'0 0.0
2017-Sep-01 18:30N 29°36' W 090°40'0 0.0
2017-Sep-01 18:00N 29°36' W 090°40'0 0.0
2017-Sep-01 17:30N 29°36' W 090°40'0 0.0
2017-Sep-01 17:00N 29°36' W 090°40'0 0.0
2017-Sep-01 16:30N 29°36' W 090°40'0 0.0
2017-Sep-01 16:00N 29°36' W 090°40'0 0.0
2017-Sep-01 15:30N 29°36' W 090°40'0 0.0
2017-Sep-01 15:00N 29°36' W 090°40'0 0.0
2017-Sep-01 14:30N 29°36' W 090°40'0 0.0
2017-Sep-01 14:00N 29°36' W 090°40'0 0.0
2017-Sep-01 13:30N 29°36' W 090°40'0 0.0
2017-Sep-01 13:00N 29°36' W 090°40'0 0.2
2017-Sep-01 12:30N 29°36' W 090°40'1 1.0
2017-Sep-01 12:00N 29°36' W 090°40'4 7.2
2017-Sep-01 11:30N 29°35' W 090°36'0 0.8
2017-Sep-01 11:00N 29°35' W 090°36'0 0.0
2017-Sep-01 10:30N 29°35' W 090°36'0 0.0
2017-Sep-01 10:00N 29°35' W 090°36'0 0.0
2017-Sep-01 09:30N 29°35' W 090°36'0 0.0
2017-Sep-01 09:00N 29°35' W 090°36'0 0.0
2017-Sep-01 08:30N 29°35' W 090°36'0 0.0
2017-Sep-01 08:00N 29°35' W 090°36'0 0.0
2017-Sep-01 07:30N 29°35' W 090°36'0 0.0
2017-Sep-01 07:00N 29°35' W 090°36'0 0.0
2017-Sep-01 06:30N 29°35' W 090°36'0 0.0
2017-Sep-01 06:00N 29°35' W 090°36'0 0.0
2017-Sep-01 05:30N 29°35' W 090°36'0 0.0
2017-Sep-01 05:00N 29°35' W 090°36'0 0.0
2017-Sep-01 04:30N 29°35' W 090°36'0 0.0
2017-Sep-01 04:00N 29°35' W 090°36'0 0.0
2017-Sep-01 03:30N 29°35' W 090°36'0 0.0
2017-Sep-01 03:00N 29°35' W 090°36'0 0.0
2017-Sep-01 02:30N 29°35' W 090°36'0 0.0
2017-Sep-01 02:00N 29°35' W 090°36'0 0.0
2017-Sep-01 01:30N 29°35' W 090°36'0 0.0
2017-Sep-01 01:00N 29°35' W 090°36'0 0.0
2017-Sep-01 00:30N 29°35' W 090°36'0 0.0
2017-Sep-01 00:00N 29°35' W 090°36'0 0.0
2017-Aug-31 23:30N 29°35' W 090°36'0 0.0
2017-Aug-31 23:00N 29°35' W 090°36'0 0.0
2017-Aug-31 22:30N 29°35' W 090°36'0 0.0
2017-Aug-31 22:00N 29°35' W 090°36'0 0.0
2017-Aug-31 21:29N 29°35' W 090°36'0 0.0
2017-Aug-31 20:56N 29°35' W 090°36'0 0.0
2017-Aug-31 20:26N 29°35' W 090°36'0 0.0
2017-Aug-31 20:00N 29°35' W 090°36'0 0.0
2017-Aug-31 19:30N 29°35' W 090°36'0 0.0
2017-Aug-31 18:49N 29°35' W 090°36'0 0.0
2017-Aug-31 18:26N 29°35' W 090°36'0 0.0
2017-Aug-31 18:00N 29°35' W 090°36'0 0.0
2017-Aug-31 17:29N 29°35' W 090°36'0 0.0
2017-Aug-31 17:00N 29°35' W 090°36'0 0.0
2017-Aug-31 16:30N 29°35' W 090°36'0 0.0
2017-Aug-31 16:00N 29°35' W 090°36'0 0.0
2017-Aug-31 15:30N 29°35' W 090°36'0 0.0
2017-Aug-31 15:00N 29°35' W 090°36'0 0.0
2017-Aug-31 14:30N 29°35' W 090°36'0 0.0
2017-Aug-31 14:00N 29°35' W 090°36'0 0.0
2017-Aug-31 13:30N 29°35' W 090°36'0 0.0
2017-Aug-31 13:00N 29°35' W 090°36'0 0.0
2017-Aug-31 12:30N 29°35' W 090°36'0 0.0
2017-Aug-31 12:00N 29°35' W 090°36'0 0.0
2017-Aug-31 11:30N 29°35' W 090°36'0 0.0
2017-Aug-31 11:00N 29°35' W 090°36'0 0.0
2017-Aug-31 10:30N 29°35' W 090°36'0 0.0
2017-Aug-31 10:00N 29°35' W 090°36'0 0.0
2017-Aug-31 09:30N 29°35' W 090°36'0 0.0
2017-Aug-31 09:00N 29°35' W 090°36'0 0.0
2017-Aug-31 08:30N 29°35' W 090°36'0 0.0
2017-Aug-31 08:00N 29°35' W 090°36'0 0.0
2017-Aug-31 07:30N 29°35' W 090°36'0 0.0
2017-Aug-31 07:00N 29°35' W 090°36'0 0.0
2017-Aug-31 06:30N 29°35' W 090°36'0 0.0
2017-Aug-31 06:00N 29°35' W 090°36'0 0.0
2017-Aug-31 05:30N 29°35' W 090°36'0 0.0
2017-Aug-31 05:00N 29°35' W 090°36'0 0.0
2017-Aug-31 04:30N 29°35' W 090°36'0 0.0
2017-Aug-31 04:00N 29°35' W 090°36'0 0.0
2017-Aug-31 03:30N 29°35' W 090°36'0 0.0
2017-Aug-31 03:00N 29°35' W 090°36'0 0.0
2017-Aug-31 02:30N 29°35' W 090°36'0 0.0
2017-Aug-31 02:00N 29°35' W 090°36'0 0.0
2017-Aug-31 01:30N 29°35' W 090°36'0 0.0
2017-Aug-31 01:00N 29°35' W 090°36'0 0.0
2017-Aug-31 00:30N 29°35' W 090°36'0 0.0
2017-Aug-31 00:00N 29°35' W 090°36'0 0.0
2017-Aug-30 23:30N 29°35' W 090°36'0 0.0
2017-Aug-30 23:00N 29°35' W 090°36'0 0.0
2017-Aug-30 22:28N 29°35' W 090°36'0 0.0
2017-Aug-30 22:00N 29°35' W 090°36'0 0.0
2017-Aug-30 21:30N 29°35' W 090°36'0 0.0
2017-Aug-30 21:00N 29°35' W 090°36'0 0.0
2017-Aug-30 20:30N 29°35' W 090°36'3 5.7
2017-Aug-30 20:00N 29°36' W 090°39'1 2.3
2017-Aug-30 19:30N 29°36' W 090°40'0 0.0
2017-Aug-30 19:00N 29°36' W 090°40'0 0.0
2017-Aug-30 18:30N 29°36' W 090°40'0 0.0
2017-Aug-30 18:00N 29°36' W 090°40'0 0.0
2017-Aug-30 17:30N 29°36' W 090°40'0 0.0
2017-Aug-30 17:00N 29°36' W 090°40'0 0.0
2017-Aug-30 16:30N 29°36' W 090°40'0 0.0
2017-Aug-30 16:00N 29°36' W 090°40'0 0.0
2017-Aug-30 15:30N 29°36' W 090°40'0 0.0
2017-Aug-30 15:00N 29°36' W 090°40'0 0.0
2017-Aug-30 14:30N 29°36' W 090°40'3 6.6
2017-Aug-30 14:00N 29°35' W 090°37'1 1.8
2017-Aug-30 13:30N 29°35' W 090°36'0 0.4
2017-Aug-30 13:00N 29°35' W 090°36'0 0.0
2017-Aug-30 12:30N 29°35' W 090°36'0 0.0
2017-Aug-30 12:00N 29°35' W 090°36'0 0.0
2017-Aug-30 11:30N 29°35' W 090°36'0 0.0
2017-Aug-30 11:00N 29°35' W 090°36'0 0.0
2017-Aug-30 10:30N 29°35' W 090°36'0 0.0
2017-Aug-30 10:00N 29°35' W 090°36'0 0.0
2017-Aug-30 09:30N 29°35' W 090°36'0 0.0
2017-Aug-30 09:00N 29°35' W 090°36'0 0.0
2017-Aug-30 08:30N 29°35' W 090°36'0 0.0
2017-Aug-30 08:00N 29°35' W 090°36'0 0.0
2017-Aug-30 07:30N 29°35' W 090°36'0 0.0
2017-Aug-30 07:00N 29°35' W 090°36'0 0.0
2017-Aug-30 06:30N 29°35' W 090°36'0 0.0
2017-Aug-30 06:00N 29°35' W 090°36'0 0.0
2017-Aug-30 05:30N 29°35' W 090°36'0 0.0
2017-Aug-30 05:00N 29°35' W 090°36'0 0.0
2017-Aug-30 04:30N 29°35' W 090°36'0 0.0
2017-Aug-30 04:00N 29°35' W 090°36'0 0.0
2017-Aug-30 03:30N 29°35' W 090°36'0 0.0
2017-Aug-30 03:00N 29°35' W 090°36'0 0.0
2017-Aug-30 02:30N 29°35' W 090°36'0 0.0
2017-Aug-30 02:00N 29°35' W 090°36'0 0.0
2017-Aug-30 01:30N 29°35' W 090°36'0 0.0
2017-Aug-30 01:00N 29°35' W 090°36'0 0.0
2017-Aug-30 00:30N 29°35' W 090°36'0 0.0
2017-Aug-30 00:00N 29°35' W 090°36'0 0.0
2017-Aug-29 23:30N 29°35' W 090°36'0 0.0
2017-Aug-29 23:00N 29°35' W 090°36'0 0.0
2017-Aug-29 22:30N 29°35' W 090°36'0 0.4
2017-Aug-29 22:00N 29°35' W 090°36'0 0.4
2017-Aug-29 21:30N 29°35' W 090°36'0 0.0
2017-Aug-29 21:00N 29°35' W 090°36'0 0.0
2017-Aug-29 20:30N 29°35' W 090°36'0 0.0
2017-Aug-29 20:00N 29°35' W 090°36'0 0.0
2017-Aug-29 19:30N 29°35' W 090°36'0 0.0
2017-Aug-29 19:00N 29°35' W 090°36'0 0.0
2017-Aug-29 18:30N 29°35' W 090°36'0 0.0
2017-Aug-29 18:00N 29°35' W 090°36'0 0.0
2017-Aug-29 17:30N 29°35' W 090°36'0 1.0
2017-Aug-29 17:00N 29°35' W 090°36'4 7.7
2017-Aug-29 16:30N 29°36' W 090°40'0 0.4
2017-Aug-29 16:00N 29°36' W 090°40'0 0.0
2017-Aug-29 15:30N 29°36' W 090°40'0 0.0
2017-Aug-29 15:00N 29°36' W 090°40'0 0.0
2017-Aug-29 14:30N 29°36' W 090°40'2 3.8
2017-Aug-29 14:00N 29°37' W 090°42'3 5.6
2017-Aug-29 13:30N 29°34' W 090°43'0 0.1
2017-Aug-29 13:00N 29°34' W 090°43'0 0.0
2017-Aug-29 12:30N 29°34' W 090°43'4 7.4
2017-Aug-29 12:00N 29°30' W 090°43'5 9.8
2017-Aug-29 11:30N 29°25' W 090°43'2 0.2
2017-Aug-29 00:17N 29°23' W 090°44'3 8.8
2017-Aug-28 23:59N 29°26' W 090°43'4 9.3
2017-Aug-28 23:30N 29°30' W 090°43'4 8.4
2017-Aug-28 23:00N 29°34' W 090°43'3 5.3
2017-Aug-28 22:30N 29°36' W 090°41'4 8.0
2017-Aug-28 22:00N 29°35' W 090°37'1 2.0
2017-Aug-28 21:30N 29°35' W 090°36'0 0.0
2017-Aug-28 21:00N 29°35' W 090°36'0 0.0
2017-Aug-28 20:30N 29°35' W 090°36'0 0.0
2017-Aug-28 20:00N 29°35' W 090°36'0 0.0
2017-Aug-28 19:30N 29°35' W 090°36'0 0.0
2017-Aug-28 19:00N 29°35' W 090°36'0 0.0
2017-Aug-28 18:30N 29°35' W 090°36'0 0.0
2017-Aug-28 18:00N 29°35' W 090°36'0 0.0
2017-Aug-28 17:30N 29°35' W 090°36'0 0.0
2017-Aug-28 17:00N 29°35' W 090°36'0 0.0
2017-Aug-28 16:30N 29°35' W 090°36'0 0.0
2017-Aug-28 16:00N 29°35' W 090°36'0 0.0
2017-Aug-28 15:30N 29°35' W 090°36'0 0.0
2017-Aug-28 15:00N 29°35' W 090°36'0 0.0
2017-Aug-28 14:30N 29°35' W 090°36'0 0.0
2017-Aug-28 14:00N 29°35' W 090°36'0 0.0
2017-Aug-28 13:30N 29°35' W 090°36'0 0.0
2017-Aug-28 13:00N 29°35' W 090°36'0 0.0
2017-Aug-28 12:30N 29°35' W 090°36'0 0.0
2017-Aug-28 12:00N 29°35' W 090°36'0 0.0
2017-Aug-28 11:30N 29°35' W 090°36'0 0.0
2017-Aug-28 11:00N 29°35' W 090°36'0 0.0
2017-Aug-28 10:30N 29°35' W 090°36'0 0.0
2017-Aug-28 10:00N 29°35' W 090°36'0 0.0
2017-Aug-28 09:30N 29°35' W 090°36'0 0.0
2017-Aug-28 09:00N 29°35' W 090°36'0 0.0
2017-Aug-28 08:30N 29°35' W 090°36'0 0.0
2017-Aug-28 08:00N 29°35' W 090°36'0 0.0
2017-Aug-28 07:30N 29°35' W 090°36'0 0.0
2017-Aug-28 07:00N 29°35' W 090°36'0 0.0
2017-Aug-28 06:30N 29°35' W 090°36'0 0.0
2017-Aug-28 06:00N 29°35' W 090°36'0 0.0
2017-Aug-28 05:30N 29°35' W 090°36'0 0.0
2017-Aug-28 05:00N 29°35' W 090°36'0 0.0
2017-Aug-28 04:30N 29°35' W 090°36'0 0.0
2017-Aug-28 04:00N 29°35' W 090°36'0 0.0
2017-Aug-28 03:30N 29°35' W 090°36'0 0.0
2017-Aug-28 03:00N 29°35' W 090°36'0 0.0
2017-Aug-28 02:30N 29°35' W 090°36'0 0.0
2017-Aug-28 02:00N 29°35' W 090°36'0 0.0
2017-Aug-28 01:30N 29°35' W 090°36'0 0.0
2017-Aug-28 01:00N 29°35' W 090°36'0 0.0
2017-Aug-28 00:30N 29°35' W 090°36'0 0.0
2017-Aug-28 00:00N 29°35' W 090°36'0 0.0
2017-Aug-27 23:30N 29°35' W 090°36'0 0.0
2017-Aug-27 23:00N 29°35' W 090°36'0 0.0
2017-Aug-27 22:30N 29°35' W 090°36'0 0.0
2017-Aug-27 22:00N 29°35' W 090°36'0 0.0
2017-Aug-27 21:30N 29°35' W 090°36'0 0.0
2017-Aug-27 21:00N 29°35' W 090°36'0 0.0
2017-Aug-27 20:30N 29°35' W 090°36'0 0.0
2017-Aug-27 20:00N 29°35' W 090°36'0 0.0
2017-Aug-27 19:30N 29°35' W 090°36'0 0.0
2017-Aug-27 19:00N 29°35' W 090°36'0 0.0
2017-Aug-27 18:30N 29°35' W 090°36'0 0.0
2017-Aug-27 18:00N 29°35' W 090°36'0 0.0
2017-Aug-27 17:30N 29°35' W 090°36'0 0.0
2017-Aug-27 17:00N 29°35' W 090°36'0 0.0
2017-Aug-27 16:30N 29°35' W 090°36'0 0.0
2017-Aug-27 16:00N 29°35' W 090°36'0 0.0
2017-Aug-27 15:30N 29°35' W 090°36'0 0.0
2017-Aug-27 15:00N 29°35' W 090°36'0 0.0
2017-Aug-27 14:30N 29°35' W 090°36'0 0.0
2017-Aug-27 14:00N 29°35' W 090°36'0 0.0
2017-Aug-27 13:30N 29°35' W 090°36'0 0.0
2017-Aug-27 13:00N 29°35' W 090°36'0 0.0
2017-Aug-27 12:30N 29°35' W 090°36'0 0.0
2017-Aug-27 12:00N 29°35' W 090°36'0 0.0
2017-Aug-27 11:30N 29°35' W 090°36'0 0.0
2017-Aug-27 11:00N 29°35' W 090°36'0 0.0
2017-Aug-27 10:30N 29°35' W 090°36'0 0.0
2017-Aug-27 10:00N 29°35' W 090°36'0 0.0
2017-Aug-27 09:30N 29°35' W 090°36'0 0.0
2017-Aug-27 09:00N 29°35' W 090°36'0 0.0
2017-Aug-27 08:30N 29°35' W 090°36'0 0.0
2017-Aug-27 08:00N 29°35' W 090°36'0 0.0
2017-Aug-27 07:30N 29°35' W 090°36'0 0.0
2017-Aug-27 07:00N 29°35' W 090°36'0 0.0
2017-Aug-27 06:30N 29°35' W 090°36'0 0.0
2017-Aug-27 06:00N 29°35' W 090°36'0 0.0
2017-Aug-27 05:30N 29°35' W 090°36'0 0.0
2017-Aug-27 05:00N 29°35' W 090°36'0 0.0
2017-Aug-27 04:30N 29°35' W 090°36'0 0.0
2017-Aug-27 04:00N 29°35' W 090°36'0 0.0
2017-Aug-27 03:30N 29°35' W 090°36'0 0.0
2017-Aug-27 03:00N 29°35' W 090°36'0 0.0
2017-Aug-27 02:30N 29°35' W 090°36'0 0.0
2017-Aug-27 02:00N 29°35' W 090°36'0 0.0
2017-Aug-27 01:30N 29°35' W 090°36'0 0.0
2017-Aug-27 01:00N 29°35' W 090°36'0 0.0
2017-Aug-27 00:30N 29°35' W 090°36'0 0.0
2017-Aug-27 00:00N 29°35' W 090°36'0 0.0
2017-Aug-26 23:30N 29°35' W 090°36'0 0.0
2017-Aug-26 23:00N 29°35' W 090°36'0 0.0
2017-Aug-26 22:30N 29°35' W 090°36'1 2.6
2017-Aug-26 22:00N 29°35' W 090°37'3 6.0
2017-Aug-26 21:30N 29°36' W 090°40'1 1.4
2017-Aug-26 21:00N 29°36' W 090°40'1 1.4
2017-Aug-26 20:30N 29°36' W 090°40'3 6.1
2017-Aug-26 20:00N 29°35' W 090°37'1 2.6
2017-Aug-26 19:30N 29°35' W 090°36'0 0.0
2017-Aug-26 19:00N 29°35' W 090°36'0 0.0
2017-Aug-26 18:30N 29°35' W 090°36'0 0.0
2017-Aug-26 18:00N 29°35' W 090°36'0 0.0
2017-Aug-26 17:30N 29°35' W 090°36'0 0.0
2017-Aug-26 17:00N 29°35' W 090°36'0 0.0
2017-Aug-26 16:30N 29°35' W 090°36'0 0.0
2017-Aug-26 15:37N 29°35' W 090°36'0 0.0
2017-Aug-26 15:30N 29°35' W 090°36'0 0.0
2017-Aug-26 15:00N 29°35' W 090°36'0 0.0
2017-Aug-26 14:00N 29°35' W 090°36'0 0.0
2017-Aug-26 13:30N 29°35' W 090°36'0 0.0
2017-Aug-26 13:00N 29°35' W 090°36'0 0.0
2017-Aug-26 12:30N 29°35' W 090°36'0 0.0
2017-Aug-26 12:00N 29°35' W 090°36'0 0.0
2017-Aug-26 11:30N 29°35' W 090°36'0 0.0
2017-Aug-26 11:00N 29°35' W 090°36'0 0.0
2017-Aug-26 10:30N 29°35' W 090°36'0 0.0
2017-Aug-26 10:00N 29°35' W 090°36'0 0.0
2017-Aug-26 09:30N 29°35' W 090°36'0 0.0
2017-Aug-26 09:00N 29°35' W 090°36'0 0.0
2017-Aug-26 08:30N 29°35' W 090°36'0 0.0
2017-Aug-26 08:00N 29°35' W 090°36'0 0.0
2017-Aug-26 07:30N 29°35' W 090°36'0 0.0
2017-Aug-26 07:00N 29°35' W 090°36'0 0.0
2017-Aug-26 06:30N 29°35' W 090°36'0 0.0
2017-Aug-26 06:00N 29°35' W 090°36'0 0.0
2017-Aug-26 05:30N 29°35' W 090°36'0 0.0
2017-Aug-26 05:00N 29°35' W 090°36'0 0.0
2017-Aug-26 04:30N 29°35' W 090°36'0 0.0
2017-Aug-26 04:00N 29°35' W 090°36'0 0.0
2017-Aug-26 03:30N 29°35' W 090°36'0 0.0
2017-Aug-26 03:00N 29°35' W 090°36'0 0.0
2017-Aug-26 02:30N 29°35' W 090°36'0 0.0
2017-Aug-26 02:00N 29°35' W 090°36'0 0.0
2017-Aug-26 01:30N 29°35' W 090°36'0 0.0
2017-Aug-26 01:00N 29°35' W 090°36'0 0.0
2017-Aug-26 00:30N 29°35' W 090°36'0 0.0
2017-Aug-26 00:00N 29°35' W 090°36'0 0.0
2017-Aug-25 23:30N 29°35' W 090°36'0 0.0
2017-Aug-25 23:00N 29°35' W 090°36'0 0.0
2017-Aug-25 22:30N 29°35' W 090°36'0 0.0
2017-Aug-25 22:00N 29°35' W 090°36'0 0.0
2017-Aug-25 21:30N 29°35' W 090°36'0 0.0
2017-Aug-25 21:00N 29°35' W 090°36'0 0.0
2017-Aug-25 20:30N 29°35' W 090°36'0 0.0
2017-Aug-25 20:00N 29°35' W 090°36'0 0.0
2017-Aug-25 19:30N 29°35' W 090°36'0 0.0
2017-Aug-25 19:00N 29°35' W 090°36'0 0.0
2017-Aug-25 18:30N 29°35' W 090°36'0 0.0
2017-Aug-25 18:00N 29°35' W 090°36'0 0.0
2017-Aug-25 17:30N 29°35' W 090°36'0 0.0
2017-Aug-25 17:00N 29°35' W 090°36'0 0.0
2017-Aug-25 16:30N 29°35' W 090°36'0 0.0
2017-Aug-25 16:00N 29°35' W 090°36'0 0.0
2017-Aug-25 15:30N 29°35' W 090°36'0 0.0
2017-Aug-25 15:00N 29°35' W 090°36'0 0.3
2017-Aug-25 14:28N 29°35' W 090°36'0 0.0
2017-Aug-25 06:52N 29°35' W 090°36'0 0.0
2017-Aug-25 04:33N 29°35' W 090°36'0 5.4
2017-Aug-25 04:30N 29°35' W 090°36'3 6.9
2017-Aug-25 04:00N 29°36' W 090°40'0 0.2
2017-Aug-25 03:30N 29°36' W 090°40'0 0.0
2017-Aug-25 03:00N 29°36' W 090°40'1 1.2
2017-Aug-25 02:30N 29°36' W 090°39'3 5.7
2017-Aug-25 02:00N 29°35' W 090°36'0 0.1
2017-Aug-25 01:29N 29°35' W 090°36'0 0.0
2017-Aug-24 21:25N 29°35' W 090°36'2 5.6
2017-Aug-24 21:00N 29°35' W 090°38'2 3.5
2017-Aug-24 20:30N 29°36' W 090°40'0 0.0
2017-Aug-24 20:00N 29°36' W 090°40'0 0.0
2017-Aug-24 19:30N 29°36' W 090°40'0 0.0
2017-Aug-24 19:00N 29°36' W 090°40'0 0.0
2017-Aug-24 18:30N 29°36' W 090°40'0 0.0
2017-Aug-24 18:00N 29°36' W 090°40'0 0.0
2017-Aug-24 17:30N 29°36' W 090°40'0 0.0
2017-Aug-24 17:00N 29°36' W 090°40'0 0.0
2017-Aug-24 16:30N 29°36' W 090°40'0 0.0
2017-Aug-24 16:00N 29°36' W 090°40'0 0.0
2017-Aug-24 15:30N 29°36' W 090°40'0 0.0
2017-Aug-24 15:00N 29°36' W 090°40'0 0.0
2017-Aug-24 14:30N 29°36' W 090°40'0 0.1
2017-Aug-24 14:00N 29°36' W 090°40'0 0.1
2017-Aug-24 13:30N 29°36' W 090°40'0 0.2
2017-Aug-24 13:00N 29°36' W 090°40'4 7.7
2017-Aug-24 12:30N 29°35' W 090°36'1 1.2
2017-Aug-24 12:00N 29°35' W 090°36'0 0.0
2017-Aug-24 11:29N 29°35' W 090°36'0 0.0
2017-Aug-24 07:47N 29°35' W 090°36'0 0.0
2017-Aug-24 07:30N 29°35' W 090°36'0 0.0
2017-Aug-24 04:54N 29°35' W 090°36'1 1.4
2017-Aug-24 04:30N 29°35' W 090°36'4 8.0
2017-Aug-24 04:00N 29°36' W 090°40'3 5.5
2017-Aug-24 03:30N 29°35' W 090°43'4 8.1
2017-Aug-24 03:00N 29°31' W 090°43'4 9.0
2017-Aug-24 02:30N 29°26' W 090°43'4 4.0
2017-Aug-24 01:27N 29°22' W 090°43'1 1.4
2017-Aug-24 00:39N 29°21' W 090°44'1 7.9
2017-Aug-24 00:30N 29°22' W 090°44'4 8.9
2017-Aug-24 00:00N 29°27' W 090°43'5 9.0
2017-Aug-23 23:30N 29°31' W 090°42'3 6.4
2017-Aug-23 23:00N 29°34' W 090°43'2 4.1
2017-Aug-23 22:30N 29°36' W 090°43'2 4.0
2017-Aug-23 22:00N 29°36' W 090°40'0 0.2
2017-Aug-23 21:30N 29°36' W 090°40'0 0.2
2017-Aug-23 21:00N 29°36' W 090°40'0 0.0
2017-Aug-23 20:30N 29°36' W 090°40'0 0.0
2017-Aug-23 20:00N 29°36' W 090°40'0 0.0
2017-Aug-23 19:30N 29°36' W 090°40'0 0.0
2017-Aug-23 19:00N 29°36' W 090°40'0 0.0
2017-Aug-23 18:30N 29°36' W 090°40'0 0.1
2017-Aug-23 18:00N 29°36' W 090°40'1 2.4
2017-Aug-23 17:30N 29°36' W 090°39'3 5.2
2017-Aug-23 17:00N 29°35' W 090°36'0 0.1
2017-Aug-23 16:24N 29°35' W 090°36'0 0.0
2017-Aug-23 13:24N 29°35' W 090°36'0 0.0
2017-Aug-23 12:53N 29°35' W 090°36'0 0.0
2017-Aug-23 12:13N 29°35' W 090°36'0 0.1
2017-Aug-23 11:57N 29°35' W 090°36'0 0.0
2017-Aug-23 11:29N 29°35' W 090°36'0 0.0
2017-Aug-23 10:25N 29°35' W 090°36'0 0.0
2017-Aug-23 09:20N 29°35' W 090°36'  
Track history (hours):
 
Tides and Currents Weather Stations Pressure Air Temp Water Temp Dewpoint Dewpoint Depression Visibility Wind Speed Wind Dir Waves Ship Positions

Delta Ruler

Owner: Crosby Marine Transportation, Golden Meadow, LA. More information available from US FCC via Universal Licensing System and Coast Guard Vessel Documentation Center.

Last reported at 2017-Sep-02 07:54 UTC. Time now 2017-Sep-22 19:15 UTC.
Position N 29°33' W 090°24'.
Warning: this ship's position is 20 days out of date.

Length 22 m; draft 2.5 m.

Type: Tug. MMSI: 367498910.

Date/timePositionNaut miles runAvg speedWind from/ knotsBaromVisibWave heightAir tempDewpointWater temp
2017-Sep-02 07:54N 29°33' W 090°24'1 2.8
2017-Sep-02 07:29N 29°33' W 090°26'0 0.0
2017-Sep-02 06:04N 29°33' W 090°26'0 0.0
2017-Sep-02 05:49N 29°33' W 090°26'0 0.0
2017-Sep-02 04:42N 29°33' W 090°26'0 0.0
2017-Sep-02 04:12N 29°33' W 090°26'1 0.8
2017-Sep-02 02:46N 29°33' W 090°27'2 6.4
2017-Sep-02 02:30N 29°34' W 090°29'3 6.5
2017-Sep-02 02:00N 29°34' W 090°32'3 5.9
2017-Sep-02 01:30N 29°35' W 090°36'0 0.9
2017-Sep-02 01:00N 29°35' W 090°36'0 0.0
2017-Sep-02 00:29N 29°35' W 090°36'0 0.0
2017-Sep-02 00:00N 29°35' W 090°36'0 0.0
2017-Sep-01 23:29N 29°35' W 090°36'0 0.0
2017-Sep-01 23:00N 29°35' W 090°36'0 0.0
2017-Sep-01 22:19N 29°35' W 090°36'1 4.9
2017-Sep-01 22:00N 29°35' W 090°38'3 5.4
2017-Sep-01 21:30N 29°36' W 090°40'0 0.1
2017-Sep-01 21:00N 29°36' W 090°40'0 0.0
2017-Sep-01 20:29N 29°36' W 090°40'0 0.0
2017-Sep-01 20:00N 29°36' W 090°40'0 0.1
2017-Sep-01 19:30N 29°36' W 090°40'0 0.0
2017-Sep-01 19:00N 29°36' W 090°40'0 0.0
2017-Sep-01 18:30N 29°36' W 090°40'0 0.0
2017-Sep-01 18:00N 29°36' W 090°40'0 0.0
2017-Sep-01 17:30N 29°36' W 090°40'0 0.0
2017-Sep-01 17:00N 29°36' W 090°40'0 0.0
2017-Sep-01 16:30N 29°36' W 090°40'0 0.0
2017-Sep-01 16:00N 29°36' W 090°40'0 0.0
2017-Sep-01 15:30N 29°36' W 090°40'0 0.0
2017-Sep-01 15:00N 29°36' W 090°40'0 0.0
2017-Sep-01 14:30N 29°36' W 090°40'0 0.0
2017-Sep-01 14:00N 29°36' W 090°40'0 0.0
2017-Sep-01 13:30N 29°36' W 090°40'0 0.0
2017-Sep-01 13:00N 29°36' W 090°40'0 0.2
2017-Sep-01 12:30N 29°36' W 090°40'1 1.0
2017-Sep-01 12:00N 29°36' W 090°40'4 7.2
2017-Sep-01 11:30N 29°35' W 090°36'0 0.8
2017-Sep-01 11:00N 29°35' W 090°36'0 0.0
2017-Sep-01 10:30N 29°35' W 090°36'0 0.0
2017-Sep-01 10:00N 29°35' W 090°36'0 0.0
2017-Sep-01 09:30N 29°35' W 090°36'0 0.0
2017-Sep-01 09:00N 29°35' W 090°36'0 0.0
2017-Sep-01 08:30N 29°35' W 090°36'0 0.0
2017-Sep-01 08:00N 29°35' W 090°36'0 0.0
2017-Sep-01 07:30N 29°35' W 090°36'0 0.0
2017-Sep-01 07:00N 29°35' W 090°36'0 0.0
2017-Sep-01 06:30N 29°35' W 090°36'0 0.0
2017-Sep-01 06:00N 29°35' W 090°36'0 0.0
2017-Sep-01 05:30N 29°35' W 090°36'0 0.0
2017-Sep-01 05:00N 29°35' W 090°36'0 0.0
2017-Sep-01 04:30N 29°35' W 090°36'0 0.0
2017-Sep-01 04:00N 29°35' W 090°36'0 0.0
2017-Sep-01 03:30N 29°35' W 090°36'0 0.0
2017-Sep-01 03:00N 29°35' W 090°36'0 0.0
2017-Sep-01 02:30N 29°35' W 090°36'0 0.0
2017-Sep-01 02:00N 29°35' W 090°36'0 0.0
2017-Sep-01 01:30N 29°35' W 090°36'0 0.0
2017-Sep-01 01:00N 29°35' W 090°36'0 0.0
2017-Sep-01 00:30N 29°35' W 090°36'0 0.0
2017-Sep-01 00:00N 29°35' W 090°36'0 0.0
2017-Aug-31 23:30N 29°35' W 090°36'0 0.0
2017-Aug-31 23:00N 29°35' W 090°36'0 0.0
2017-Aug-31 22:30N 29°35' W 090°36'0 0.0
2017-Aug-31 22:00N 29°35' W 090°36'0 0.0
2017-Aug-31 21:29N 29°35' W 090°36'0 0.0
2017-Aug-31 20:56N 29°35' W 090°36'0 0.0
2017-Aug-31 20:26N 29°35' W 090°36'0 0.0
2017-Aug-31 20:00N 29°35' W 090°36'0 0.0
2017-Aug-31 19:30N 29°35' W 090°36'0 0.0
2017-Aug-31 18:49N 29°35' W 090°36'0 0.0
2017-Aug-31 18:26N 29°35' W 090°36'0 0.0
2017-Aug-31 18:00N 29°35' W 090°36'0 0.0
2017-Aug-31 17:29N 29°35' W 090°36'0 0.0
2017-Aug-31 17:00N 29°35' W 090°36'0 0.0
2017-Aug-31 16:30N 29°35' W 090°36'0 0.0
2017-Aug-31 16:00N 29°35' W 090°36'0 0.0
2017-Aug-31 15:30N 29°35' W 090°36'0 0.0
2017-Aug-31 15:00N 29°35' W 090°36'0 0.0
2017-Aug-31 14:30N 29°35' W 090°36'0 0.0
2017-Aug-31 14:00N 29°35' W 090°36'0 0.0
2017-Aug-31 13:30N 29°35' W 090°36'0 0.0
2017-Aug-31 13:00N 29°35' W 090°36'0 0.0
2017-Aug-31 12:30N 29°35' W 090°36'0 0.0
2017-Aug-31 12:00N 29°35' W 090°36'0 0.0
2017-Aug-31 11:30N 29°35' W 090°36'0 0.0
2017-Aug-31 11:00N 29°35' W 090°36'0 0.0
2017-Aug-31 10:30N 29°35' W 090°36'0 0.0
2017-Aug-31 10:00N 29°35' W 090°36'0 0.0
2017-Aug-31 09:30N 29°35' W 090°36'0 0.0
2017-Aug-31 09:00N 29°35' W 090°36'0 0.0
2017-Aug-31 08:30N 29°35' W 090°36'0 0.0
2017-Aug-31 08:00N 29°35' W 090°36'0 0.0
2017-Aug-31 07:30N 29°35' W 090°36'0 0.0
2017-Aug-31 07:00N 29°35' W 090°36'0 0.0
2017-Aug-31 06:30N 29°35' W 090°36'0 0.0
2017-Aug-31 06:00N 29°35' W 090°36'0 0.0
2017-Aug-31 05:30N 29°35' W 090°36'0 0.0
2017-Aug-31 05:00N 29°35' W 090°36'0 0.0
2017-Aug-31 04:30N 29°35' W 090°36'0 0.0
2017-Aug-31 04:00N 29°35' W 090°36'0 0.0
2017-Aug-31 03:30N 29°35' W 090°36'0 0.0
2017-Aug-31 03:00N 29°35' W 090°36'0 0.0
2017-Aug-31 02:30N 29°35' W 090°36'0 0.0
2017-Aug-31 02:00N 29°35' W 090°36'0 0.0
2017-Aug-31 01:30N 29°35' W 090°36'0 0.0
2017-Aug-31 01:00N 29°35' W 090°36'0 0.0
2017-Aug-31 00:30N 29°35' W 090°36'0 0.0
2017-Aug-31 00:00N 29°35' W 090°36'0 0.0
2017-Aug-30 23:30N 29°35' W 090°36'0 0.0
2017-Aug-30 23:00N 29°35' W 090°36'0 0.0
2017-Aug-30 22:28N 29°35' W 090°36'0 0.0
2017-Aug-30 22:00N 29°35' W 090°36'0 0.0
2017-Aug-30 21:30N 29°35' W 090°36'0 0.0
2017-Aug-30 21:00N 29°35' W 090°36'0 0.0
2017-Aug-30 20:30N 29°35' W 090°36'3 5.7
2017-Aug-30 20:00N 29°36' W 090°39'1 2.3
2017-Aug-30 19:30N 29°36' W 090°40'0 0.0
2017-Aug-30 19:00N 29°36' W 090°40'0 0.0
2017-Aug-30 18:30N 29°36' W 090°40'0 0.0
2017-Aug-30 18:00N 29°36' W 090°40'0 0.0
2017-Aug-30 17:30N 29°36' W 090°40'0 0.0
2017-Aug-30 17:00N 29°36' W 090°40'0 0.0
2017-Aug-30 16:30N 29°36' W 090°40'0 0.0
2017-Aug-30 16:00N 29°36' W 090°40'0 0.0
2017-Aug-30 15:30N 29°36' W 090°40'0 0.0
2017-Aug-30 15:00N 29°36' W 090°40'0 0.0
2017-Aug-30 14:30N 29°36' W 090°40'3 6.6
2017-Aug-30 14:00N 29°35' W 090°37'1 1.8
2017-Aug-30 13:30N 29°35' W 090°36'0 0.4
2017-Aug-30 13:00N 29°35' W 090°36'0 0.0
2017-Aug-30 12:30N 29°35' W 090°36'0 0.0
2017-Aug-30 12:00N 29°35' W 090°36'0 0.0
2017-Aug-30 11:30N 29°35' W 090°36'0 0.0
2017-Aug-30 11:00N 29°35' W 090°36'0 0.0
2017-Aug-30 10:30N 29°35' W 090°36'0 0.0
2017-Aug-30 10:00N 29°35' W 090°36'0 0.0
2017-Aug-30 09:30N 29°35' W 090°36'0 0.0
2017-Aug-30 09:00N 29°35' W 090°36'0 0.0
2017-Aug-30 08:30N 29°35' W 090°36'0 0.0
2017-Aug-30 08:00N 29°35' W 090°36'0 0.0
2017-Aug-30 07:30N 29°35' W 090°36'0 0.0
2017-Aug-30 07:00N 29°35' W 090°36'0 0.0
2017-Aug-30 06:30N 29°35' W 090°36'0 0.0
2017-Aug-30 06:00N 29°35' W 090°36'0 0.0
2017-Aug-30 05:30N 29°35' W 090°36'0 0.0
2017-Aug-30 05:00N 29°35' W 090°36'0 0.0
2017-Aug-30 04:30N 29°35' W 090°36'0 0.0
2017-Aug-30 04:00N 29°35' W 090°36'0 0.0
2017-Aug-30 03:30N 29°35' W 090°36'0 0.0
2017-Aug-30 03:00N 29°35' W 090°36'0 0.0
2017-Aug-30 02:30N 29°35' W 090°36'0 0.0
2017-Aug-30 02:00N 29°35' W 090°36'0 0.0
2017-Aug-30 01:30N 29°35' W 090°36'0 0.0
2017-Aug-30 01:00N 29°35' W 090°36'0 0.0
2017-Aug-30 00:30N 29°35' W 090°36'0 0.0
2017-Aug-30 00:00N 29°35' W 090°36'0 0.0
2017-Aug-29 23:30N 29°35' W 090°36'0 0.0
2017-Aug-29 23:00N 29°35' W 090°36'0 0.0
2017-Aug-29 22:30N 29°35' W 090°36'0 0.4
2017-Aug-29 22:00N 29°35' W 090°36'0 0.4
2017-Aug-29 21:30N 29°35' W 090°36'0 0.0
2017-Aug-29 21:00N 29°35' W 090°36'0 0.0
2017-Aug-29 20:30N 29°35' W 090°36'0 0.0
2017-Aug-29 20:00N 29°35' W 090°36'0 0.0
2017-Aug-29 19:30N 29°35' W 090°36'0 0.0
2017-Aug-29 19:00N 29°35' W 090°36'0 0.0
2017-Aug-29 18:30N 29°35' W 090°36'0 0.0
2017-Aug-29 18:00N 29°35' W 090°36'0 0.0
2017-Aug-29 17:30N 29°35' W 090°36'0 1.0
2017-Aug-29 17:00N 29°35' W 090°36'4 7.7
2017-Aug-29 16:30N 29°36' W 090°40'0 0.4
2017-Aug-29 16:00N 29°36' W 090°40'0 0.0
2017-Aug-29 15:30N 29°36' W 090°40'0 0.0
2017-Aug-29 15:00N 29°36' W 090°40'0 0.0
2017-Aug-29 14:30N 29°36' W 090°40'2 3.8
2017-Aug-29 14:00N 29°37' W 090°42'3 5.6
2017-Aug-29 13:30N 29°34' W 090°43'0 0.1
2017-Aug-29 13:00N 29°34' W 090°43'0 0.0
2017-Aug-29 12:30N 29°34' W 090°43'4 7.4
2017-Aug-29 12:00N 29°30' W 090°43'5 9.8
2017-Aug-29 11:30N 29°25' W 090°43'2 0.2
2017-Aug-29 00:17N 29°23' W 090°44'3 8.8
2017-Aug-28 23:59N 29°26' W 090°43'4 9.3
2017-Aug-28 23:30N 29°30' W 090°43'4 8.4
2017-Aug-28 23:00N 29°34' W 090°43'3 5.3
2017-Aug-28 22:30N 29°36' W 090°41'4 8.0
2017-Aug-28 22:00N 29°35' W 090°37'1 2.0
2017-Aug-28 21:30N 29°35' W 090°36'0 0.0
2017-Aug-28 21:00N 29°35' W 090°36'0 0.0
2017-Aug-28 20:30N 29°35' W 090°36'0 0.0
2017-Aug-28 20:00N 29°35' W 090°36'0 0.0
2017-Aug-28 19:30N 29°35' W 090°36'0 0.0
2017-Aug-28 19:00N 29°35' W 090°36'0 0.0
2017-Aug-28 18:30N 29°35' W 090°36'0 0.0
2017-Aug-28 18:00N 29°35' W 090°36'0 0.0
2017-Aug-28 17:30N 29°35' W 090°36'0 0.0
2017-Aug-28 17:00N 29°35' W 090°36'0 0.0
2017-Aug-28 16:30N 29°35' W 090°36'0 0.0
2017-Aug-28 16:00N 29°35' W 090°36'0 0.0
2017-Aug-28 15:30N 29°35' W 090°36'0 0.0
2017-Aug-28 15:00N 29°35' W 090°36'0 0.0
2017-Aug-28 14:30N 29°35' W 090°36'0 0.0
2017-Aug-28 14:00N 29°35' W 090°36'0 0.0
2017-Aug-28 13:30N 29°35' W 090°36'0 0.0
2017-Aug-28 13:00N 29°35' W 090°36'0 0.0
2017-Aug-28 12:30N 29°35' W 090°36'0 0.0
2017-Aug-28 12:00N 29°35' W 090°36'0 0.0
2017-Aug-28 11:30N 29°35' W 090°36'0 0.0
2017-Aug-28 11:00N 29°35' W 090°36'0 0.0
2017-Aug-28 10:30N 29°35' W 090°36'0 0.0
2017-Aug-28 10:00N 29°35' W 090°36'0 0.0
2017-Aug-28 09:30N 29°35' W 090°36'0 0.0
2017-Aug-28 09:00N 29°35' W 090°36'0 0.0
2017-Aug-28 08:30N 29°35' W 090°36'0 0.0
2017-Aug-28 08:00N 29°35' W 090°36'0 0.0
2017-Aug-28 07:30N 29°35' W 090°36'0 0.0
2017-Aug-28 07:00N 29°35' W 090°36'0 0.0
2017-Aug-28 06:30N 29°35' W 090°36'0 0.0
2017-Aug-28 06:00N 29°35' W 090°36'0 0.0
2017-Aug-28 05:30N 29°35' W 090°36'0 0.0
2017-Aug-28 05:00N 29°35' W 090°36'0 0.0
2017-Aug-28 04:30N 29°35' W 090°36'0 0.0
2017-Aug-28 04:00N 29°35' W 090°36'0 0.0
2017-Aug-28 03:30N 29°35' W 090°36'0 0.0
2017-Aug-28 03:00N 29°35' W 090°36'0 0.0
2017-Aug-28 02:30N 29°35' W 090°36'0 0.0
2017-Aug-28 02:00N 29°35' W 090°36'0 0.0
2017-Aug-28 01:30N 29°35' W 090°36'0 0.0
2017-Aug-28 01:00N 29°35' W 090°36'0 0.0
2017-Aug-28 00:30N 29°35' W 090°36'0 0.0
2017-Aug-28 00:00N 29°35' W 090°36'0 0.0
2017-Aug-27 23:30N 29°35' W 090°36'0 0.0
2017-Aug-27 23:00N 29°35' W 090°36'0 0.0
2017-Aug-27 22:30N 29°35' W 090°36'0 0.0
2017-Aug-27 22:00N 29°35' W 090°36'0 0.0
2017-Aug-27 21:30N 29°35' W 090°36'0 0.0
2017-Aug-27 21:00N 29°35' W 090°36'0 0.0
2017-Aug-27 20:30N 29°35' W 090°36'0 0.0
2017-Aug-27 20:00N 29°35' W 090°36'0 0.0
2017-Aug-27 19:30N 29°35' W 090°36'0 0.0
2017-Aug-27 19:00N 29°35' W 090°36'0 0.0
2017-Aug-27 18:30N 29°35' W 090°36'0 0.0
2017-Aug-27 18:00N 29°35' W 090°36'0 0.0
2017-Aug-27 17:30N 29°35' W 090°36'0 0.0
2017-Aug-27 17:00N 29°35' W 090°36'0 0.0
2017-Aug-27 16:30N 29°35' W 090°36'0 0.0
2017-Aug-27 16:00N 29°35' W 090°36'0 0.0
2017-Aug-27 15:30N 29°35' W 090°36'0 0.0
2017-Aug-27 15:00N 29°35' W 090°36'0 0.0
2017-Aug-27 14:30N 29°35' W 090°36'0 0.0
2017-Aug-27 14:00N 29°35' W 090°36'0 0.0
2017-Aug-27 13:30N 29°35' W 090°36'0 0.0
2017-Aug-27 13:00N 29°35' W 090°36'0 0.0
2017-Aug-27 12:30N 29°35' W 090°36'0 0.0
2017-Aug-27 12:00N 29°35' W 090°36'0 0.0
2017-Aug-27 11:30N 29°35' W 090°36'0 0.0
2017-Aug-27 11:00N 29°35' W 090°36'0 0.0
2017-Aug-27 10:30N 29°35' W 090°36'0 0.0
2017-Aug-27 10:00N 29°35' W 090°36'0 0.0
2017-Aug-27 09:30N 29°35' W 090°36'0 0.0
2017-Aug-27 09:00N 29°35' W 090°36'0 0.0
2017-Aug-27 08:30N 29°35' W 090°36'0 0.0
2017-Aug-27 08:00N 29°35' W 090°36'0 0.0
2017-Aug-27 07:30N 29°35' W 090°36'0 0.0
2017-Aug-27 07:00N 29°35' W 090°36'0 0.0
2017-Aug-27 06:30N 29°35' W 090°36'0 0.0
2017-Aug-27 06:00N 29°35' W 090°36'0 0.0
2017-Aug-27 05:30N 29°35' W 090°36'0 0.0
2017-Aug-27 05:00N 29°35' W 090°36'0 0.0
2017-Aug-27 04:30N 29°35' W 090°36'0 0.0
2017-Aug-27 04:00N 29°35' W 090°36'0 0.0
2017-Aug-27 03:30N 29°35' W 090°36'0 0.0
2017-Aug-27 03:00N 29°35' W 090°36'0 0.0
2017-Aug-27 02:30N 29°35' W 090°36'0 0.0
2017-Aug-27 02:00N 29°35' W 090°36'0 0.0
2017-Aug-27 01:30N 29°35' W 090°36'0 0.0
2017-Aug-27 01:00N 29°35' W 090°36'0 0.0
2017-Aug-27 00:30N 29°35' W 090°36'0 0.0
2017-Aug-27 00:00N 29°35' W 090°36'0 0.0
2017-Aug-26 23:30N 29°35' W 090°36'0 0.0
2017-Aug-26 23:00N 29°35' W 090°36'0 0.0
2017-Aug-26 22:30N 29°35' W 090°36'1 2.6
2017-Aug-26 22:00N 29°35' W 090°37'3 6.0
2017-Aug-26 21:30N 29°36' W 090°40'1 1.4
2017-Aug-26 21:00N 29°36' W 090°40'1 1.4
2017-Aug-26 20:30N 29°36' W 090°40'3 6.1
2017-Aug-26 20:00N 29°35' W 090°37'1 2.6
2017-Aug-26 19:30N 29°35' W 090°36'0 0.0
2017-Aug-26 19:00N 29°35' W 090°36'0 0.0
2017-Aug-26 18:30N 29°35' W 090°36'0 0.0
2017-Aug-26 18:00N 29°35' W 090°36'0 0.0
2017-Aug-26 17:30N 29°35' W 090°36'0 0.0
2017-Aug-26 17:00N 29°35' W 090°36'0 0.0
2017-Aug-26 16:30N 29°35' W 090°36'0 0.0
2017-Aug-26 15:37N 29°35' W 090°36'0 0.0
2017-Aug-26 15:30N 29°35' W 090°36'0 0.0
2017-Aug-26 15:00N 29°35' W 090°36'0 0.0
2017-Aug-26 14:00N 29°35' W 090°36'0 0.0
2017-Aug-26 13:30N 29°35' W 090°36'0 0.0
2017-Aug-26 13:00N 29°35' W 090°36'0 0.0
2017-Aug-26 12:30N 29°35' W 090°36'0 0.0
2017-Aug-26 12:00N 29°35' W 090°36'0 0.0
2017-Aug-26 11:30N 29°35' W 090°36'0 0.0
2017-Aug-26 11:00N 29°35' W 090°36'0 0.0
2017-Aug-26 10:30N 29°35' W 090°36'0 0.0
2017-Aug-26 10:00N 29°35' W 090°36'0 0.0
2017-Aug-26 09:30N 29°35' W 090°36'0 0.0
2017-Aug-26 09:00N 29°35' W 090°36'0 0.0
2017-Aug-26 08:30N 29°35' W 090°36'0 0.0
2017-Aug-26 08:00N 29°35' W 090°36'0 0.0
2017-Aug-26 07:30N 29°35' W 090°36'0 0.0
2017-Aug-26 07:00N 29°35' W 090°36'0 0.0
2017-Aug-26 06:30N 29°35' W 090°36'0 0.0
2017-Aug-26 06:00N 29°35' W 090°36'0 0.0
2017-Aug-26 05:30N 29°35' W 090°36'0 0.0
2017-Aug-26 05:00N 29°35' W 090°36'0 0.0
2017-Aug-26 04:30N 29°35' W 090°36'0 0.0
2017-Aug-26 04:00N 29°35' W 090°36'0 0.0
2017-Aug-26 03:30N 29°35' W 090°36'0 0.0
2017-Aug-26 03:00N 29°35' W 090°36'0 0.0
2017-Aug-26 02:30N 29°35' W 090°36'0 0.0
2017-Aug-26 02:00N 29°35' W 090°36'0 0.0
2017-Aug-26 01:30N 29°35' W 090°36'0 0.0
2017-Aug-26 01:00N 29°35' W 090°36'0 0.0
2017-Aug-26 00:30N 29°35' W 090°36'0 0.0
2017-Aug-26 00:00N 29°35' W 090°36'0 0.0
2017-Aug-25 23:30N 29°35' W 090°36'0 0.0
2017-Aug-25 23:00N 29°35' W 090°36'0 0.0
2017-Aug-25 22:30N 29°35' W 090°36'0 0.0
2017-Aug-25 22:00N 29°35' W 090°36'0 0.0
2017-Aug-25 21:30N 29°35' W 090°36'0 0.0
2017-Aug-25 21:00N 29°35' W 090°36'0 0.0
2017-Aug-25 20:30N 29°35' W 090°36'0 0.0
2017-Aug-25 20:00N 29°35' W 090°36'0 0.0
2017-Aug-25 19:30N 29°35' W 090°36'0 0.0
2017-Aug-25 19:00N 29°35' W 090°36'0 0.0
2017-Aug-25 18:30N 29°35' W 090°36'0 0.0
2017-Aug-25 18:00N 29°35' W 090°36'0 0.0
2017-Aug-25 17:30N 29°35' W 090°36'0 0.0
2017-Aug-25 17:00N 29°35' W 090°36'0 0.0
2017-Aug-25 16:30N 29°35' W 090°36'0 0.0
2017-Aug-25 16:00N 29°35' W 090°36'0 0.0
2017-Aug-25 15:30N 29°35' W 090°36'0 0.0
2017-Aug-25 15:00N 29°35' W 090°36'0 0.3
2017-Aug-25 14:28N 29°35' W 090°36'0 0.0
2017-Aug-25 06:52N 29°35' W 090°36'0 0.0
2017-Aug-25 04:33N 29°35' W 090°36'0 5.4
2017-Aug-25 04:30N 29°35' W 090°36'3 6.9
2017-Aug-25 04:00N 29°36' W 090°40'0 0.2
2017-Aug-25 03:30N 29°36' W 090°40'0 0.0
2017-Aug-25 03:00N 29°36' W 090°40'1 1.2
2017-Aug-25 02:30N 29°36' W 090°39'3 5.7
2017-Aug-25 02:00N 29°35' W 090°36'0 0.1
2017-Aug-25 01:29N 29°35' W 090°36'0 0.0
2017-Aug-24 21:25N 29°35' W 090°36'2 5.6
2017-Aug-24 21:00N 29°35' W 090°38'2 3.5
2017-Aug-24 20:30N 29°36' W 090°40'0 0.0
2017-Aug-24 20:00N 29°36' W 090°40'0 0.0
2017-Aug-24 19:30N 29°36' W 090°40'0 0.0
2017-Aug-24 19:00N 29°36' W 090°40'0 0.0
2017-Aug-24 18:30N 29°36' W 090°40'0 0.0
2017-Aug-24 18:00N 29°36' W 090°40'0 0.0
2017-Aug-24 17:30N 29°36' W 090°40'0 0.0
2017-Aug-24 17:00N 29°36' W 090°40'0 0.0
2017-Aug-24 16:30N 29°36' W 090°40'0 0.0
2017-Aug-24 16:00N 29°36' W 090°40'0 0.0
2017-Aug-24 15:30N 29°36' W 090°40'0 0.0
2017-Aug-24 15:00N 29°36' W 090°40'0 0.0
2017-Aug-24 14:30N 29°36' W 090°40'0 0.1
2017-Aug-24 14:00N 29°36' W 090°40'0 0.1
2017-Aug-24 13:30N 29°36' W 090°40'0 0.2
2017-Aug-24 13:00N 29°36' W 090°40'4 7.7
2017-Aug-24 12:30N 29°35' W 090°36'1 1.2
2017-Aug-24 12:00N 29°35' W 090°36'0 0.0
2017-Aug-24 11:29N 29°35' W 090°36'0 0.0
2017-Aug-24 07:47N 29°35' W 090°36'0 0.0
2017-Aug-24 07:30N 29°35' W 090°36'0 0.0
2017-Aug-24 04:54N 29°35' W 090°36'1 1.4
2017-Aug-24 04:30N 29°35' W 090°36'4 8.0
2017-Aug-24 04:00N 29°36' W 090°40'3 5.5
2017-Aug-24 03:30N 29°35' W 090°43'4 8.1
2017-Aug-24 03:00N 29°31' W 090°43'4 9.0
2017-Aug-24 02:30N 29°26' W 090°43'4 4.0
2017-Aug-24 01:27N 29°22' W 090°43'1 1.4
2017-Aug-24 00:39N 29°21' W 090°44'1 7.9
2017-Aug-24 00:30N 29°22' W 090°44'4 8.9
2017-Aug-24 00:00N 29°27' W 090°43'5 9.0
2017-Aug-23 23:30N 29°31' W 090°42'3 6.4
2017-Aug-23 23:00N 29°34' W 090°43'2 4.1
2017-Aug-23 22:30N 29°36' W 090°43'2 4.0
2017-Aug-23 22:00N 29°36' W 090°40'0 0.2
2017-Aug-23 21:30N 29°36' W 090°40'0 0.2
2017-Aug-23 21:00N 29°36' W 090°40'0 0.0
2017-Aug-23 20:30N 29°36' W 090°40'0 0.0
2017-Aug-23 20:00N 29°36' W 090°40'0 0.0
2017-Aug-23 19:30N 29°36' W 090°40'0 0.0
2017-Aug-23 19:00N 29°36' W 090°40'0 0.0
2017-Aug-23 18:30N 29°36' W 090°40'0 0.1
2017-Aug-23 18:00N 29°36' W 090°40'1 2.4
2017-Aug-23 17:30N 29°36' W 090°39'3 5.2
2017-Aug-23 17:00N 29°35' W 090°36'0 0.1
2017-Aug-23 16:24N 29°35' W 090°36'0 0.0
2017-Aug-23 13:24N 29°35' W 090°36'0 0.0
2017-Aug-23 12:53N 29°35' W 090°36'0 0.0
2017-Aug-23 12:13N 29°35' W 090°36'0 0.1
2017-Aug-23 11:57N 29°35' W 090°36'0 0.0
2017-Aug-23 11:29N 29°35' W 090°36'0 0.0
2017-Aug-23 10:25N 29°35' W 090°36'0 0.0
2017-Aug-23 09:20N 29°35' W 090°36'  

Dump ship's entire track history